Time;durP1;ratioP1;P1;durP2;ratioP2;P2;SDS_P1;SDS_P2;PMS_P1;PMS_P2;Temp;Humidity;BMP_temperature;BMP_pressure;BME280_temperature;BME280_humidity;BME280_pressure;Samples;Min_cycle;Max_cycle;Signal;HPM_P1;HPM_P2
2022/01/10 00:01:06;;;;;;;6.93;0.97;;;-10.00;99.50;;;;;;2215476;64;20356;-44
2022/01/10 00:03:39;;;;;;;1.60;0.67;;;-10.00;99.20;;;;;;2209410;64;20103;-51
2022/01/10 00:06:11;;;;;;;2.33;0.97;;;-10.00;98.80;;;;;;2212208;64;20252;-48
2022/01/10 00:08:43;;;;;;;2.27;0.60;;;-10.10;98.40;;;;;;2212289;64;20096;-54
2022/01/10 00:11:15;;;;;;;1.93;0.63;;;-10.10;98.20;;;;;;2215314;64;20198;-47
2022/01/10 00:13:47;;;;;;;1.80;0.60;;;-10.20;98.20;;;;;;2212214;64;20085;-46
2022/01/10 00:16:19;;;;;;;3.10;0.53;;;-10.20;98.20;;;;;;2215339;64;20488;-47
2022/01/10 00:18:51;;;;;;;1.67;0.47;;;-10.20;98.00;;;;;;2212281;64;20086;-48
2022/01/10 00:21:22;;;;;;;3.13;0.50;;;-10.20;97.80;;;;;;2215339;64;20097;-46
2022/01/10 00:23:54;;;;;;;3.30;1.03;;;-10.20;97.70;;;;;;2209195;64;20501;-46
2022/01/10 00:26:26;;;;;;;5.43;0.73;;;-10.20;98.00;;;;;;2209147;64;20201;-48
2022/01/10 00:28:58;;;;;;;0.77;0.40;;;-10.20;98.20;;;;;;2208467;64;20485;-47
2022/01/10 00:31:32;;;;;;;3.00;0.93;;;-10.20;98.60;;;;;;2207754;64;20648;-47
2022/01/10 00:34:07;;;;;;;1.38;0.50;;;-10.20;98.60;;;;;;2217171;64;20095;-50
2022/01/10 00:36:39;;;;;;;2.33;0.70;;;-10.20;98.20;;;;;;2217181;64;20085;-55
2022/01/10 00:39:11;;;;;;;1.90;0.50;;;-10.20;96.50;;;;;;2217005;64;20187;-49
2022/01/10 00:41:45;;;;;;;2.27;0.60;;;-10.20;95.60;;;;;;2217234;64;20152;-46
2022/01/10 00:44:24;;;;;;;2.50;0.97;;;-10.20;94.90;;;;;;2216894;64;20093;-54
2022/01/10 00:46:56;;;;;;;0.77;0.67;;;-10.10;94.90;;;;;;2216919;64;20609;-48
2022/01/10 00:49:28;;;;;;;0.90;0.30;;;-10.10;94.40;;;;;;2216983;64;20115;-52
2022/01/10 00:52:00;;;;;;;1.70;0.47;;;-10.10;94.60;;;;;;2216945;64;20104;-46
2022/01/10 00:54:31;;;;;;;1.17;0.37;;;-10.20;94.90;;;;;;2217153;64;20568;-49
2022/01/10 00:57:04;;;;;;;3.37;0.60;;;-10.20;94.80;;;;;;2217100;64;20100;-53
2022/01/10 00:59:36;;;;;;;1.83;0.67;;;-10.10;94.20;;;;;;2217143;64;20463;-52
2022/01/10 01:02:10;;;;;;;0.63;0.40;;;-10.10;93.90;;;;;;2213957;64;20496;-45
2022/01/10 01:04:42;;;;;;;1.30;0.35;;;-10.00;93.50;;;;;;2216979;64;20113;-43
2022/01/10 01:07:13;;;;;;;1.13;0.50;;;-10.00;93.60;;;;;;2217011;64;20097;-52
2022/01/10 01:09:53;;;;;;;2.90;0.47;;;-10.00;93.10;;;;;;2217004;64;20548;-47
2022/01/10 01:12:41;;;;;;;1.47;0.47;;;-10.00;93.00;;;;;;2216825;64;20123;-52
2022/01/10 01:15:31;;;;;;;1.63;0.77;;;-9.90;93.10;;;;;;2216893;64;20556;-48
2022/01/10 01:26:04;;;;;;;0.20;0.20;;;-9.90;92.50;;;;;;2217047;64;20169;-49
2022/01/10 01:28:36;;;;;;;0.20;0.20;;;-9.90;92.70;;;;;;2221158;64;20094;-49
2022/01/10 01:31:08;;;;;;;0.97;0.57;;;-9.90;92.50;;;;;;2221030;64;20580;-48
2022/01/10 01:33:40;;;;;;;1.63;0.53;;;-10.00;92.50;;;;;;2220901;64;20104;-48
2022/01/10 01:36:17;;;;;;;0.30;0.20;;;-10.00;92.50;;;;;;2221031;64;20571;-47
2022/01/10 01:38:49;;;;;;;0.50;0.40;;;-10.00;92.80;;;;;;2221080;64;20092;-48
2022/01/10 01:41:36;;;;;;;0.23;0.20;;;-10.00;92.70;;;;;;2220930;64;20107;-47
2022/01/10 01:44:08;;;;;;;1.33;0.30;;;-10.00;92.60;;;;;;2220975;64;20102;-54
2022/01/10 01:46:42;;;;;;;0.40;0.30;;;-10.10;92.50;;;;;;2220821;64;20159;-43
2022/01/10 01:49:14;;;;;;;2.87;0.67;;;-10.10;92.60;;;;;;2217002;64;20092;-54
2022/01/10 01:51:46;;;;;;;0.43;0.30;;;-10.10;92.50;;;;;;2219971;64;20318;-48
2022/01/10 01:54:18;;;;;;;0.27;0.23;;;-10.20;92.80;;;;;;2220011;64;20108;-53
2022/01/10 01:56:49;;;;;;;2.00;0.60;;;-10.20;93.00;;;;;;2219916;64;20540;-48
2022/01/10 01:59:21;;;;;;;2.63;0.73;;;-10.10;93.30;;;;;;2216984;64;20100;-50
2022/01/10 02:01:54;;;;;;;2.33;0.50;;;-10.10;93.30;;;;;;2220020;64;20089;-52
2022/01/10 02:04:26;;;;;;;0.53;0.40;;;-10.10;93.20;;;;;;2216998;64;20583;-46
2022/01/10 02:06:58;;;;;;;1.20;0.90;;;-10.10;93.60;;;;;;2216888;64;20097;-48
2022/01/10 02:09:31;;;;;;;1.20;0.60;;;-10.10;93.50;;;;;;2220039;64;20100;-49
2022/01/10 02:12:03;;;;;;;2.27;0.60;;;-10.10;93.80;;;;;;2219838;64;20164;-52
2022/01/10 02:14:35;;;;;;;1.03;0.20;;;-10.10;94.00;;;;;;2220032;64;20096;-53
2022/01/10 02:17:06;;;;;;;0.37;0.37;;;-10.00;94.30;;;;;;2220247;64;20100;-54
2022/01/10 02:19:38;;;;;;;1.03;0.30;;;-10.10;94.30;;;;;;2219994;64;20111;-46
2022/01/10 02:22:10;;;;;;;1.70;0.50;;;-10.10;94.20;;;;;;2220144;64;20549;-50
2022/01/10 02:24:42;;;;;;;0.40;0.40;;;-10.00;94.30;;;;;;2219786;64;20088;-43
2022/01/10 02:27:14;;;;;;;1.57;0.43;;;-10.00;94.30;;;;;;2216166;64;20084;-52
2022/01/10 02:29:45;;;;;;;1.47;0.80;;;-10.00;94.60;;;;;;2213070;64;20089;-48
2022/01/10 02:32:18;;;;;;;0.60;0.20;;;-9.90;94.70;;;;;;2216065;64;20085;-46
2022/01/10 02:34:50;;;;;;;2.43;0.67;;;-9.90;95.00;;;;;;2213182;64;20081;-45
2022/01/10 02:37:35;;;;;;;1.23;0.73;;;-9.90;94.90;;;;;;2216184;64;20092;-47
2022/01/10 02:40:13;;;;;;;1.55;0.40;;;-9.90;95.20;;;;;;2216153;64;20101;-49
2022/01/10 02:42:45;;;;;;;1.77;0.50;;;-9.80;95.20;;;;;;2213101;64;20166;-47
2022/01/10 02:45:17;;;;;;;1.43;0.53;;;-9.90;95.20;;;;;;2210349;64;20558;-52
2022/01/10 02:47:49;;;;;;;0.93;0.53;;;-9.90;95.10;;;;;;2207231;64;20109;-53
2022/01/10 02:50:21;;;;;;;3.40;0.30;;;-9.90;95.10;;;;;;2201044;64;20102;-46
2022/01/10 02:52:53;;;;;;;2.47;0.30;;;-9.90;95.20;;;;;;2203916;64;20668;-48
2022/01/10 02:55:24;;;;;;;1.27;0.40;;;-9.90;95.30;;;;;;2204168;64;20462;-47
2022/01/10 02:57:56;;;;;;;2.33;0.40;;;-9.90;95.20;;;;;;2207341;64;20175;-48
2022/01/10 03:00:28;;;;;;;6.07;0.57;;;-9.80;95.40;;;;;;2204290;64;20180;-47
2022/01/10 03:03:06;;;;;;;1.63;0.90;;;-9.90;95.40;;;;;;2204137;64;20188;-47
2022/01/10 03:05:38;;;;;;;0.93;0.40;;;-9.80;95.80;;;;;;2207293;64;20098;-48
2022/01/10 03:08:10;;;;;;;0.77;0.40;;;-9.80;95.60;;;;;;2204584;64;20528;-49
2022/01/10 03:10:41;;;;;;;2.03;0.50;;;-9.80;95.70;;;;;;2204962;64;20086;-47
2022/01/10 03:13:13;;;;;;;2.47;0.40;;;-9.70;95.80;;;;;;2205038;64;20078;-57
2022/01/10 03:15:45;;;;;;;0.93;0.47;;;-9.70;95.80;;;;;;2207166;64;20104;-47
2022/01/10 03:18:17;;;;;;;1.63;0.60;;;-9.80;95.50;;;;;;2216681;64;20151;-47
2022/01/10 03:20:49;;;;;;;0.43;0.30;;;-9.80;95.20;;;;;;2216530;64;20101;-47
2022/01/10 03:23:20;;;;;;;0.70;0.40;;;-9.80;95.30;;;;;;2219765;64;20093;-49
2022/01/10 03:25:52;;;;;;;0.97;0.30;;;-9.80;95.90;;;;;;2218802;64;20092;-48
2022/01/10 03:28:24;;;;;;;2.23;0.60;;;-9.80;95.80;;;;;;2220503;64;20115;-48
2022/01/10 03:30:56;;;;;;;2.53;0.57;;;-9.80;95.90;;;;;;2220461;64;20101;-52
2022/01/10 03:33:28;;;;;;;3.97;0.87;;;-9.90;95.50;;;;;;2220380;64;20085;-45
2022/01/10 03:36:03;;;;;;;1.83;0.50;;;-9.90;95.50;;;;;;2220423;64;20097;-52
2022/01/10 03:38:35;;;;;;;1.27;0.43;;;-9.90;95.80;;;;;;2220432;64;20417;-48
2022/01/10 03:41:10;;;;;;;1.07;0.43;;;-9.90;95.40;;;;;;2217284;64;20099;-48
2022/01/10 03:43:42;;;;;;;;;;;-9.90;95.60;;;;;;2220748;64;20089;-50
2022/01/10 03:46:14;;;;;;;3.63;0.80;;;-9.90;95.60;;;;;;2217271;64;20018;-46
2022/01/10 03:48:49;;;;;;;0.83;0.50;;;-9.90;95.60;;;;;;2213128;64;20098;-42
2022/01/10 03:51:21;;;;;;;1.33;0.65;;;-9.90;95.20;;;;;;2220150;64;20104;-50
2022/01/10 03:53:52;;;;;;;2.00;0.53;;;-9.90;95.30;;;;;;2220227;64;20081;-50
2022/01/10 03:56:26;;;;;;;1.17;0.67;;;-9.90;95.30;;;;;;2220231;64;20088;-46
2022/01/10 03:58:57;;;;;;;0.83;0.37;;;-9.90;95.40;;;;;;2220302;64;20081;-46
2022/01/10 04:01:30;;;;;;;2.63;0.90;;;-9.90;95.20;;;;;;2217150;64;20084;-50
2022/01/10 04:04:02;;;;;;;1.33;0.40;;;-9.90;95.00;;;;;;2220309;64;20100;-48
2022/01/10 04:06:36;;;;;;;0.57;0.27;;;-9.90;94.90;;;;;;2217253;64;20088;-49
2022/01/10 04:09:08;;;;;;;1.35;0.35;;;-9.90;94.40;;;;;;2220373;64;20112;-48
2022/01/10 04:11:40;;;;;;;1.80;0.80;;;-9.90;94.00;;;;;;2220157;64;20159;-48
2022/01/10 04:14:12;;;;;;;1.50;0.40;;;-9.80;93.40;;;;;;2220225;64;20170;-47
2022/01/10 04:16:43;;;;;;;1.30;0.73;;;-9.80;93.00;;;;;;2220403;64;20080;-51
2022/01/10 04:19:15;;;;;;;2.43;0.70;;;-9.80;92.90;;;;;;2220108;64;20453;-48
2022/01/10 04:21:47;;;;;;;2.10;0.63;;;-9.80;92.90;;;;;;2220311;64;20085;-47
2022/01/10 04:24:19;;;;;;;2.47;0.27;;;-9.70;92.90;;;;;;2220347;64;20092;-44
2022/01/10 04:26:50;;;;;;;3.07;0.37;;;-9.70;92.60;;;;;;2216519;64;20186;-54
2022/01/10 04:29:22;;;;;;;0.50;0.23;;;-9.70;92.80;;;;;;2216249;64;20132;-43
2022/01/10 04:31:54;;;;;;;1.50;0.37;;;-9.70;92.60;;;;;;2216319;64;20112;-53
2022/01/10 04:34:26;;;;;;;2.10;1.03;;;-9.70;92.80;;;;;;2216291;64;20127;-46
2022/01/10 04:36:58;;;;;;;0.63;0.40;;;-9.70;92.60;;;;;;2216282;64;20457;-46
2022/01/10 04:39:29;;;;;;;2.67;0.80;;;-9.70;92.00;;;;;;2216523;64;20123;-50
2022/01/10 04:42:01;;;;;;;2.63;0.53;;;-9.70;92.10;;;;;;2216472;64;20089;-47
2022/01/10 04:44:33;;;;;;;1.20;0.60;;;-9.70;91.50;;;;;;2216510;64;20115;-47
2022/01/10 04:47:05;;;;;;;1.43;0.70;;;-9.70;91.20;;;;;;2216517;64;20197;-47
2022/01/10 04:50:03;;;;;;;1.47;0.60;;;-9.70;91.00;;;;;;2216430;64;20081;-47
2022/01/10 04:52:29;;;;;;;2.50;0.60;;;-9.60;90.40;;;;;;2216089;64;20147;-46
2022/01/10 04:55:04;;;;;;;3.00;0.50;;;-9.60;89.90;;;;;;2216203;64;20116;-46
2022/01/10 04:57:37;;;;;;;0.30;0.28;;;-9.60;90.00;;;;;;2216185;64;20088;-49
2022/01/10 05:00:10;;;;;;;1.30;0.43;;;-9.60;90.70;;;;;;2216238;64;20081;-54
2022/01/10 05:02:47;;;;;;;1.33;0.60;;;-9.60;90.20;;;;;;2216273;64;20184;-48
2022/01/10 05:05:22;;;;;;;2.40;0.57;;;-9.60;90.30;;;;;;2216318;64;20181;-45
2022/01/10 05:07:53;;;;;;;1.60;0.60;;;-9.60;90.40;;;;;;2216132;64;20101;-48
2022/01/10 05:10:25;;;;;;;1.00;0.47;;;-9.70;90.50;;;;;;2216117;64;20553;-46
2022/01/10 05:12:57;;;;;;;1.33;0.37;;;-9.70;90.30;;;;;;2216068;64;20113;-47
2022/01/10 05:15:29;;;;;;;4.30;0.63;;;-9.70;90.40;;;;;;2216019;64;20107;-51
2022/01/10 05:18:01;;;;;;;0.23;0.20;;;-9.80;89.40;;;;;;2215981;64;20166;-50
2022/01/10 05:20:32;;;;;;;1.40;0.90;;;-9.70;89.10;;;;;;2215863;64;20089;-49
2022/01/10 05:23:04;;;;;;;3.97;0.97;;;-9.70;89.90;;;;;;2216172;64;20178;-46
2022/01/10 05:25:40;;;;;;;0.40;0.27;;;-9.80;90.20;;;;;;2217746;64;20097;-44
2022/01/10 05:28:12;;;;;;;1.30;0.60;;;-9.80;90.40;;;;;;2219986;64;20089;-51
2022/01/10 05:30:45;;;;;;;1.60;0.53;;;-9.70;90.50;;;;;;2219925;64;20089;-49
2022/01/10 05:33:17;;;;;;;1.97;0.57;;;-9.70;90.50;;;;;;2220045;64;20107;-49
2022/01/10 05:35:49;;;;;;;1.30;0.50;;;-9.70;90.30;;;;;;2220058;64;20116;-48
2022/01/10 05:38:21;;;;;;;1.03;0.40;;;-9.70;90.10;;;;;;2220022;64;20229;-46
2022/01/10 05:40:52;;;;;;;2.20;0.50;;;-9.70;90.10;;;;;;2220069;64;20104;-39
2022/01/10 05:43:24;;;;;;;2.43;0.50;;;-9.70;90.30;;;;;;2219989;64;20097;-49
2022/01/10 05:45:56;;;;;;;1.57;0.30;;;-9.70;90.10;;;;;;2219794;64;20111;-49
2022/01/10 05:48:30;;;;;;;1.60;0.60;;;-9.70;90.20;;;;;;2219857;64;20131;-49
2022/01/10 05:51:02;;;;;;;1.43;0.50;;;-9.60;89.90;;;;;;2219969;64;20096;-54
2022/01/10 05:53:34;;;;;;;1.23;0.47;;;-9.60;90.20;;;;;;2220012;64;20088;-55
2022/01/10 05:56:06;;;;;;;0.97;0.30;;;-9.60;89.10;;;;;;2219855;64;20085;-54
2022/01/10 05:58:38;;;;;;;2.10;0.50;;;-9.60;89.20;;;;;;2216747;64;20156;-53
2022/01/10 06:01:10;;;;;;;0.17;0.17;;;-9.50;88.50;;;;;;2219977;64;20115;-52
2022/01/10 06:03:41;;;;;;;1.53;0.37;;;-9.50;88.70;;;;;;2220085;64;20098;-50
2022/01/10 06:06:13;;;;;;;2.23;0.73;;;-9.40;87.50;;;;;;2219889;64;20084;-53
2022/01/10 06:08:45;;;;;;;2.67;0.73;;;-9.40;87.90;;;;;;2219862;64;20107;-56
2022/01/10 06:11:17;;;;;;;0.40;0.20;;;-9.30;88.10;;;;;;2218811;64;20464;-50
2022/01/10 06:13:49;;;;;;;2.33;0.77;;;-9.30;87.50;;;;;;2215788;64;20100;-48
2022/01/10 06:16:21;;;;;;;1.60;0.73;;;-9.30;86.70;;;;;;2215813;64;20093;-54
2022/01/10 06:18:53;;;;;;;1.53;0.40;;;-9.20;86.50;;;;;;2219030;64;20542;-47
2022/01/10 06:21:24;;;;;;;4.33;0.57;;;-9.20;86.20;;;;;;2219020;64;20104;-50
2022/01/10 06:23:56;;;;;;;0.50;0.27;;;-9.10;86.40;;;;;;2215757;64;20140;-52
2022/01/10 06:26:28;;;;;;;0.67;0.30;;;-9.10;84.30;;;;;;2215731;64;20093;-52
2022/01/10 06:29:00;;;;;;;3.60;0.50;;;-9.00;83.70;;;;;;2214936;64;20089;-52
2022/01/10 06:31:32;;;;;;;1.50;0.67;;;-8.90;83.00;;;;;;2211814;64;20560;-51
2022/01/10 06:34:04;;;;;;;4.40;0.97;;;-8.90;82.80;;;;;;2214873;64;20519;-53
2022/01/10 06:36:36;;;;;;;2.17;0.30;;;-8.80;82.40;;;;;;2215014;64;20135;-52
2022/01/10 06:39:08;;;;;;;0.90;0.47;;;-8.80;82.20;;;;;;2214918;64;20564;-48
2022/01/10 06:41:40;;;;;;;2.13;0.60;;;-8.80;82.00;;;;;;2212179;64;20187;-52
2022/01/10 06:44:15;;;;;;;1.87;0.70;;;-8.80;81.80;;;;;;2216632;64;20184;-50
2022/01/10 06:46:46;;;;;;;;;;;-8.80;82.10;;;;;;2216894;64;20085;-47
2022/01/10 06:49:18;;;;;;;2.80;0.70;;;-8.80;80.20;;;;;;2216571;64;20069;-44
2022/01/10 06:51:50;;;;;;;2.00;0.73;;;-8.60;79.90;;;;;;2216652;64;20088;-44
2022/01/10 06:54:22;;;;;;;0.93;0.50;;;-8.60;78.90;;;;;;2216788;64;20108;-52
2022/01/10 06:56:58;;;;;;;5.73;1.50;;;-8.50;78.50;;;;;;2216597;64;20232;-52
2022/01/10 06:59:30;;;;;;;3.03;0.37;;;-8.60;80.00;;;;;;2216628;64;20085;-45
2022/01/10 07:02:02;;;;;;;1.90;0.20;;;-8.60;81.20;;;;;;2216414;64;20089;-44
2022/01/10 07:04:33;;;;;;;0.60;0.20;;;-8.40;80.80;;;;;;2216575;64;20077;-44
2022/01/10 07:07:06;;;;;;;3.00;0.70;;;-8.30;79.00;;;;;;2213535;64;20477;-43
2022/01/10 07:09:37;;;;;;;1.97;0.43;;;-8.20;77.70;;;;;;2216563;64;20553;-43
2022/01/10 07:12:09;;;;;;;6.07;0.80;;;-8.20;77.30;;;;;;2216458;64;20101;-43
2022/01/10 07:14:41;;;;;;;3.57;0.30;;;-8.10;80.10;;;;;;2216457;64;20203;-46
2022/01/10 07:17:13;;;;;;;1.40;0.40;;;-8.00;78.80;;;;;;2216627;64;20081;-45
2022/01/10 07:19:45;;;;;;;6.33;0.87;;;-7.90;79.20;;;;;;2216573;64;20093;-45
2022/01/10 07:22:17;;;;;;;2.83;0.90;;;-7.70;79.40;;;;;;2207804;64;20105;-44
2022/01/10 07:24:49;;;;;;;7.10;0.60;;;-7.70;78.90;;;;;;2205032;64;20105;-46
2022/01/10 07:27:21;;;;;;;2.20;0.80;;;-7.60;81.20;;;;;;2200692;65;20101;-44
2022/01/10 07:29:53;;;;;;;1.83;0.73;;;-7.70;80.50;;;;;;2200819;65;20678;-43
2022/01/10 07:32:29;;;;;;;2.70;0.77;;;-7.60;80.70;;;;;;2200857;65;20090;-43
2022/01/10 07:35:04;;;;;;;2.83;0.67;;;-7.70;80.90;;;;;;2200906;65;20102;-45
2022/01/10 07:37:36;;;;;;;3.50;0.77;;;-7.70;84.30;;;;;;2200863;65;20108;-43
2022/01/10 07:40:08;;;;;;;1.83;0.70;;;-7.70;83.90;;;;;;2200817;65;20444;-41
2022/01/10 07:42:40;;;;;;;7.07;1.53;;;-7.80;84.10;;;;;;2200732;65;20113;-45
2022/01/10 07:45:12;;;;;;;1.93;0.90;;;-7.50;84.70;;;;;;2200862;65;20096;-45
2022/01/10 07:47:44;;;;;;;2.20;0.80;;;-7.50;83.60;;;;;;2200643;65;20113;-44
2022/01/10 07:50:16;;;;;;;5.07;0.60;;;-7.30;82.70;;;;;;2200667;65;20538;-43
2022/01/10 07:52:48;;;;;;;2.97;0.87;;;-7.30;83.30;;;;;;2203427;64;20089;-45
2022/01/10 07:55:20;;;;;;;2.00;0.70;;;-7.30;81.70;;;;;;2212092;64;21177;-45
2022/01/10 07:57:52;;;;;;;2.53;1.00;;;-7.40;84.00;;;;;;2215313;64;20180;-45
2022/01/10 08:00:24;;;;;;;1.73;0.60;;;-7.40;83.80;;;;;;2215246;64;20093;-45
2022/01/10 08:02:55;;;;;;;2.17;0.70;;;-7.20;83.60;;;;;;2212338;64;20116;-45
2022/01/10 08:05:27;;;;;;;4.20;0.70;;;-6.90;84.60;;;;;;2218980;64;20093;-45
2022/01/10 08:07:59;;;;;;;3.23;1.87;;;-6.60;84.10;;;;;;2220324;64;20181;-49
2022/01/10 08:10:31;;;;;;;4.00;1.10;;;-6.50;80.60;;;;;;2220194;64;20081;-47
2022/01/10 08:13:03;;;;;;;2.77;1.00;;;-6.40;79.70;;;;;;2220070;64;20189;-52
2022/01/10 08:15:35;;;;;;;3.33;1.00;;;-6.40;76.70;;;;;;2220287;64;20102;-51
2022/01/10 08:18:07;;;;;;;1.77;1.00;;;-6.40;76.80;;;;;;2220171;64;20088;-55
2022/01/10 08:20:39;;;;;;;2.20;0.77;;;-6.40;79.90;;;;;;2217184;64;20107;-53
2022/01/10 08:23:12;;;;;;;2.97;0.57;;;-6.50;76.70;;;;;;2220329;64;20557;-52
2022/01/10 08:25:44;;;;;;;2.07;0.60;;;-6.60;78.00;;;;;;2218386;64;20089;-53
2022/01/10 08:28:16;;;;;;;1.83;0.60;;;-6.70;78.20;;;;;;2216264;64;20089;-53
2022/01/10 08:30:48;;;;;;;2.53;0.60;;;-6.90;78.90;;;;;;2216232;64;20178;-54
2022/01/10 08:33:20;;;;;;;0.97;0.40;;;-6.80;79.10;;;;;;2204221;64;20110;-53
2022/01/10 08:35:51;;;;;;;5.63;0.67;;;-6.80;79.20;;;;;;2204340;64;20097;-54
2022/01/10 08:38:23;;;;;;;2.40;0.90;;;-6.90;81.70;;;;;;2204389;64;20094;-56
2022/01/10 08:40:55;;;;;;;2.67;0.80;;;-7.20;83.40;;;;;;2204451;64;20090;-48
2022/01/10 08:43:27;;;;;;;3.33;0.80;;;-7.40;85.80;;;;;;2204543;64;20590;-53
2022/01/10 08:45:59;;;;;;;0.70;0.30;;;-7.20;84.40;;;;;;2204469;64;20589;-55
2022/01/10 08:48:30;;;;;;;5.70;0.97;;;-7.10;84.10;;;;;;2204334;64;20213;-54
2022/01/10 08:51:03;;;;;;;1.73;0.50;;;-7.20;83.80;;;;;;2204543;64;20078;-54
2022/01/10 08:53:35;;;;;;;5.97;0.97;;;-7.10;83.90;;;;;;2204412;64;20109;-51
2022/01/10 08:56:06;;;;;;;3.83;1.20;;;-7.20;85.40;;;;;;2204442;64;20081;-46
2022/01/10 08:58:38;;;;;;;0.23;0.13;;;-7.40;87.00;;;;;;2204180;64;20171;-53
2022/01/10 09:01:10;;;;;;;2.60;0.37;;;-7.10;86.60;;;;;;2204128;64;20097;-52
2022/01/10 09:03:42;;;;;;;2.80;0.87;;;-7.10;85.50;;;;;;2206061;64;20093;-52
2022/01/10 09:06:14;;;;;;;0.87;0.70;;;-7.20;87.00;;;;;;2215843;64;20077;-57
2022/01/10 09:08:47;;;;;;;4.50;0.93;;;-7.10;86.80;;;;;;2215981;64;20077;-57
2022/01/10 09:11:22;;;;;;;1.60;0.90;;;-7.10;87.30;;;;;;2216113;64;20109;-57
2022/01/10 09:13:54;;;;;;;;;;;-7.20;88.70;;;;;;2213177;64;20116;-54
2022/01/10 09:16:25;;;;;;;6.13;0.83;;;-7.20;88.70;;;;;;2216157;64;20057;-56
2022/01/10 09:18:57;;;;;;;6.13;0.90;;;-7.40;90.00;;;;;;2216090;64;20481;-53
2022/01/10 09:21:29;;;;;;;4.50;0.80;;;-7.30;90.00;;;;;;2216118;64;20568;-46
2022/01/10 09:24:01;;;;;;;5.27;0.93;;;-7.30;90.50;;;;;;2216160;64;20085;-54
2022/01/10 09:26:34;;;;;;;3.23;1.33;;;-7.30;90.60;;;;;;2216449;64;20084;-52
2022/01/10 09:29:06;;;;;;;3.27;0.83;;;-7.40;91.40;;;;;;2220121;64;20090;-48
2022/01/10 09:31:38;;;;;;;3.90;0.90;;;-7.40;91.60;;;;;;2220160;64;20099;-52
2022/01/10 09:34:09;;;;;;;7.60;1.90;;;-7.00;91.00;;;;;;2219956;64;20505;-53
2022/01/10 09:36:41;;;;;;;1.30;0.33;;;-7.10;91.20;;;;;;2220220;64;20464;-53
2022/01/10 09:39:13;;;;;;;1.80;0.60;;;-7.10;91.40;;;;;;2219982;64;20158;-57
2022/01/10 09:41:46;;;;;;;3.53;0.67;;;-7.10;91.00;;;;;;2219972;64;20111;-51
2022/01/10 09:44:18;;;;;;;1.67;0.40;;;-7.00;90.70;;;;;;2220047;64;20077;-52
2022/01/10 09:46:50;;;;;;;4.10;0.77;;;-6.90;90.20;;;;;;2216955;64;20123;-52
2022/01/10 09:49:22;;;;;;;7.53;0.90;;;-7.00;90.50;;;;;;2219919;64;20480;-54
2022/01/10 09:51:54;;;;;;;2.43;0.67;;;-7.30;91.30;;;;;;2216815;64;20089;-54
2022/01/10 09:54:26;;;;;;;4.30;1.13;;;-7.20;91.40;;;;;;2219769;64;20088;-56
2022/01/10 09:56:58;;;;;;;4.97;0.77;;;-7.20;91.70;;;;;;2219928;64;20089;-53
2022/01/10 09:59:30;;;;;;;2.13;1.00;;;-7.30;90.90;;;;;;2219845;64;20096;-47
2022/01/10 10:02:02;;;;;;;3.43;1.03;;;-7.40;91.10;;;;;;2219850;64;20104;-53
2022/01/10 10:04:37;;;;;;;4.37;0.70;;;-7.50;92.00;;;;;;2219966;64;20097;-53
2022/01/10 10:07:09;;;;;;;;;;;-7.50;91.80;;;;;;2219918;64;20095;-53
2022/01/10 10:09:41;;;;;;;0.67;0.43;;;-7.40;92.10;;;;;;2219994;64;20121;-53
2022/01/10 10:12:13;;;;;;;3.37;0.90;;;-7.50;92.00;;;;;;2219780;64;20100;-54
2022/01/10 10:14:45;;;;;;;5.27;1.50;;;-7.10;91.50;;;;;;2213721;64;20256;-48
2022/01/10 10:17:18;;;;;;;3.40;1.00;;;-6.90;89.60;;;;;;2219900;64;20092;-54
2022/01/10 10:19:50;;;;;;;0.60;0.43;;;-6.80;89.30;;;;;;2219918;64;20460;-54
2022/01/10 10:22:24;;;;;;;3.07;0.77;;;-7.10;88.30;;;;;;2219910;64;20108;-55
2022/01/10 10:24:56;;;;;;;5.77;1.40;;;-7.20;89.70;;;;;;2219235;64;20099;-53
2022/01/10 10:27:27;;;;;;;5.10;1.00;;;-7.20;89.10;;;;;;2213116;64;20107;-53
2022/01/10 10:29:59;;;;;;;1.73;0.70;;;-7.20;89.10;;;;;;2216053;64;20545;-52
2022/01/10 10:32:31;;;;;;;4.30;1.43;;;-7.20;90.10;;;;;;2215892;64;20113;-53
2022/01/10 10:35:04;;;;;;;4.70;0.73;;;-7.10;88.20;;;;;;2216062;64;20550;-53
2022/01/10 10:37:41;;;;;;;1.07;0.43;;;-7.10;87.20;;;;;;2216183;64;20434;-52
2022/01/10 10:40:14;;;;;;;5.07;1.57;;;-7.20;89.10;;;;;;2216049;64;20124;-54
2022/01/10 10:42:46;;;;;;;4.27;0.80;;;-7.20;89.10;;;;;;2216048;64;20144;-57
2022/01/10 10:45:17;;;;;;;4.27;0.70;;;-7.30;90.40;;;;;;2216129;64;20101;-52
2022/01/10 10:47:49;;;;;;;8.07;1.27;;;-7.40;90.10;;;;;;2218862;64;20653;-54
2022/01/10 10:50:23;;;;;;;2.30;0.70;;;-7.40;90.50;;;;;;2209889;64;20097;-54
2022/01/10 10:52:58;;;;;;;4.40;0.87;;;-7.50;90.60;;;;;;2215868;64;20178;-54
2022/01/10 10:55:33;;;;;;;3.38;0.90;;;-7.60;91.20;;;;;;2209952;64;20306;-56
2022/01/10 10:58:05;;;;;;;;;;;-7.60;90.90;;;;;;2213098;64;20073;-53
2022/01/10 11:00:38;;;;;;;3.80;1.00;;;-7.50;91.30;;;;;;2215982;64;20452;-51
2022/01/10 11:03:12;;;;;;;1.30;0.63;;;-7.60;91.50;;;;;;2215947;64;20170;-52
2022/01/10 11:05:44;;;;;;;1.92;0.45;;;-7.50;91.00;;;;;;2212851;64;20081;-54
2022/01/10 11:08:16;;;;;;;2.97;0.50;;;-7.50;91.30;;;;;;2212719;64;20134;-47
2022/01/10 11:10:48;;;;;;;3.70;1.17;;;-7.70;91.50;;;;;;2215842;64;20085;-52
2022/01/10 11:13:21;;;;;;;2.83;1.03;;;-7.60;92.10;;;;;;2209656;64;20111;-53
2022/01/10 11:15:56;;;;;;;2.53;0.93;;;-7.50;91.40;;;;;;2215780;64;20667;-55
2022/01/10 11:18:28;;;;;;;1.67;0.70;;;-7.70;91.90;;;;;;2212767;64;20089;-53
2022/01/10 11:20:59;;;;;;;2.00;0.93;;;-7.70;92.20;;;;;;2215779;64;20108;-53
2022/01/10 11:23:31;;;;;;;3.60;1.10;;;-7.80;93.00;;;;;;2215744;64;20095;-53
2022/01/10 11:26:05;;;;;;;7.23;2.40;;;-7.70;92.80;;;;;;2218160;64;20084;-52
2022/01/10 11:28:52;;;;;;;2.15;0.63;;;-7.60;92.30;;;;;;2220006;64;20089;-53
2022/01/10 11:31:25;;;;;;;4.07;1.20;;;-7.70;92.10;;;;;;2220192;64;20193;-51
2022/01/10 11:33:57;;;;;;;5.53;1.50;;;-7.60;91.70;;;;;;2220326;64;20099;-52
2022/01/10 11:36:30;;;;;;;2.20;0.77;;;-7.60;92.30;;;;;;2216973;64;20077;-54
2022/01/10 11:39:09;;;;;;;4.40;1.30;;;-7.60;91.40;;;;;;2220041;64;20099;-50
2022/01/10 11:41:40;;;;;;;4.23;0.87;;;-7.80;91.70;;;;;;2220399;64;20077;-55
2022/01/10 11:44:14;;;;;;;5.10;3.33;;;-8.00;91.80;;;;;;2220145;64;20077;-54
2022/01/10 11:46:49;;;;;;;5.03;1.20;;;-8.00;92.10;;;;;;2220237;64;20081;-53
2022/01/10 11:49:22;;;;;;;6.27;1.33;;;-8.00;91.90;;;;;;2220122;64;20123;-52
2022/01/10 11:51:54;;;;;;;2.17;0.67;;;-8.10;92.10;;;;;;2220075;64;20085;-52
2022/01/10 11:54:36;;;;;;;3.83;1.20;;;-8.10;92.50;;;;;;2215056;64;20093;-52
2022/01/10 11:57:12;;;;;;;0.90;0.30;;;-8.30;93.00;;;;;;2212220;64;20152;-56
2022/01/10 11:59:53;;;;;;;0.90;0.33;;;-8.30;93.30;;;;;;2212134;64;20255;-45
2022/01/10 12:02:25;;;;;;;1.40;0.60;;;-8.60;93.80;;;;;;2212090;64;20488;-52
2022/01/10 12:05:02;;;;;;;0.60;0.37;;;-8.60;94.10;;;;;;2215158;64;20085;-53
2022/01/10 12:07:34;;;;;;;1.20;0.47;;;-8.70;94.30;;;;;;2212180;64;20093;-55
2022/01/10 12:10:07;;;;;;;0.83;0.33;;;-8.90;95.00;;;;;;2215166;64;20085;-51
2022/01/10 12:12:41;;;;;;;1.63;0.40;;;-8.90;95.80;;;;;;2212012;64;20093;-53
2022/01/10 12:15:12;;;;;;;3.17;0.40;;;-8.90;96.80;;;;;;2212343;64;20531;-56
2022/01/10 12:17:45;;;;;;;0.93;0.37;;;-8.90;97.00;;;;;;2212160;64;20519;-57
2022/01/10 12:20:16;;;;;;;3.47;0.40;;;-9.00;97.20;;;;;;2212108;64;20077;-53
2022/01/10 12:22:51;;;;;;;0.30;0.20;;;-9.00;97.40;;;;;;2212038;64;20617;-54
2022/01/10 12:25:23;;;;;;;6.72;0.63;;;-9.10;97.50;;;;;;2210154;64;20109;-55
2022/01/10 12:27:58;;;;;;;1.67;0.50;;;-9.00;97.60;;;;;;2211293;64;20074;-55
2022/01/10 12:30:30;;;;;;;1.05;0.45;;;-9.00;97.50;;;;;;2208345;64;20145;-55
2022/01/10 12:33:03;;;;;;;2.30;0.53;;;-9.00;97.80;;;;;;2215441;64;20104;-57
2022/01/10 12:35:35;;;;;;;0.30;0.30;;;-9.10;98.10;;;;;;2216117;64;20135;-54
2022/01/10 12:38:07;;;;;;;2.27;0.57;;;-9.10;98.80;;;;;;2216252;64;20093;-54
2022/01/10 12:40:38;;;;;;;0.70;0.40;;;-9.20;99.20;;;;;;2216076;64;20175;-54
2022/01/10 12:43:10;;;;;;;0.70;0.40;;;-9.20;99.90;;;;;;2216225;64;20097;-53
2022/01/10 12:45:42;;;;;;;0.40;0.27;;;-9.30;99.90;;;;;;2216225;64;20561;-56
2022/01/10 12:48:14;;;;;;;1.37;0.40;;;-9.30;99.90;;;;;;2216317;64;20552;-53
2022/01/10 12:50:48;;;;;;;0.90;0.30;;;-9.30;99.90;;;;;;2216397;64;20085;-54
2022/01/10 12:53:22;;;;;;;0.83;0.23;;;-9.30;99.90;;;;;;2216107;64;20104;-53
2022/01/10 12:55:55;;;;;;;0.57;0.33;;;-9.20;99.90;;;;;;2216291;64;20081;-56
2022/01/10 12:58:27;;;;;;;0.30;0.20;;;-9.20;99.90;;;;;;2216288;64;20096;-56
2022/01/10 13:01:08;;;;;;;0.67;0.50;;;-9.20;99.90;;;;;;2213184;64;20552;-56
2022/01/10 13:03:44;;;;;;;2.20;0.20;;;-9.20;99.90;;;;;;2216252;64;20604;-54
2022/01/10 13:06:16;;;;;;;0.50;0.40;;;-9.20;99.90;;;;;;2216143;64;20112;-56
2022/01/10 13:08:48;;;;;;;1.90;0.80;;;-9.20;99.90;;;;;;2213144;64;20116;-56
2022/01/10 13:11:22;;;;;;;1.30;0.40;;;-9.10;99.90;;;;;;2216126;64;20132;-54
2022/01/10 13:13:54;;;;;;;1.00;0.50;;;-9.10;99.90;;;;;;2213099;64;20089;-55
2022/01/10 13:16:28;;;;;;;0.30;0.10;;;-9.10;99.90;;;;;;2209918;64;20089;-57
2022/01/10 13:19:02;;;;;;;1.37;0.40;;;-9.10;99.90;;;;;;2216006;64;20093;-55
2022/01/10 13:21:37;;;;;;;0.53;0.20;;;-9.10;99.90;;;;;;2212821;64;20172;-53